メインページ
METAR-TAF:

METAR-TAF

空港 :

ワガドゥグー, ブルキナファソ

ワガドゥグー空港

緯度: 12-21N, 経度: 001-31W, 海抜: 316m

現時点の気象観測

当レポートは18分前の23:00(UTC)に作成
の風 1kt
気温 29°C
湿度 70%
気圧 1015 hPa
視程10km以上
高度2000ftの雲はほとんどない

METAR: DFFD 272300Z 01001KT 9999 FEW020 29/23 Q1015 NOSIG

時間: 23:18 (23:18 UTC)

予報

当レポートは6時間18分前の17:00(UTC)に作成
予報は27日の 18時(UTC)から 28日の 24時(UTC)まで有効
変向風 10kt
視程10km以上
高度2000ftの雲はほとんどない
確率 30% :
27日の 18時(UTC)から 27日の 24時(UTC)まで一時的に
視程: 4000m
高度2000ftの雲は散在している
高度3300ftの雲はほとんどない, 積乱雲.
激しい雷雨, 雨
28日の 12時(UTC)から 28日の 22時(UTC)まで一時的に
視程: 4000m
高度2000ftの雲は散在している
高度3300ftの雲はほとんどない, 積乱雲.
激しい雷雨, 雨

TAF: DFFD 271700Z 2718/2824 VRB10KT 9999 FEW020 PROB30 TEMPO 2718/2724 4000 TSRA SCT020 FEW033CB TEMPO 2812/2822 4000 TSRA SCT020 FEW033CB

4,000以上の空港の気象観測と天気予報(METAR報とTAF報)

利用可能な観測所は地図上に黄色い丸と赤い丸で示す。

丸の上にカーソルを重ねると観測所名を参照できる。

次にクリックすると気象観測と天気予報を参照できる。

マップの切り替え:黒色「×」印の緑ボタンをクリックして拡大、「-」印の緑ボタンをクリックして縮小、緑色の三角印をクリックして隣りの地図に切り替え


METAR-TAF: